createdAt,value
2023-05-06T00:01:44.352Z,17.88
2023-05-06T00:04:12.207Z,17.92
2023-05-06T00:06:39.594Z,18.04
2023-05-06T00:09:07.032Z,17.93
2023-05-06T00:11:34.893Z,17.88
2023-05-06T00:14:02.172Z,18.08
2023-05-06T00:16:29.944Z,18.15
2023-05-06T00:18:57.259Z,18.04
2023-05-06T00:21:24.561Z,18.30
2023-05-06T00:23:52.346Z,18.27
2023-05-06T00:26:19.673Z,17.98
2023-05-06T00:28:47.419Z,17.88
2023-05-06T00:31:14.944Z,17.64
2023-05-06T00:33:42.510Z,17.68
2023-05-06T00:36:10.348Z,17.72
2023-05-06T00:38:37.701Z,17.57
2023-05-06T00:41:05.346Z,17.60
2023-05-06T00:43:32.610Z,17.61
2023-05-06T00:46:00.137Z,17.70
2023-05-06T00:48:28.215Z,17.73
2023-05-06T00:50:55.894Z,17.58
2023-05-06T00:53:24.313Z,17.47
2023-05-06T00:55:52.551Z,17.46
2023-05-06T00:58:20.546Z,17.63
2023-05-06T01:00:48.502Z,17.56
2023-05-06T01:03:17.219Z,17.46
2023-05-06T01:05:57.325Z,17.27
2023-05-06T01:08:41.933Z,17.07
2023-05-06T01:11:39.783Z,17.09
2023-05-06T01:14:15.909Z,17.29
2023-05-06T01:16:44.417Z,17.49
2023-05-06T01:19:27.738Z,17.37
2023-05-06T01:21:58.089Z,17.18
2023-05-06T01:24:40.870Z,16.95
2023-05-06T01:27:09.712Z,16.91
2023-05-06T01:29:39.685Z,16.91
2023-05-06T01:32:19.119Z,16.77
2023-05-06T01:35:01.126Z,16.82
2023-05-06T01:37:42.154Z,16.79
2023-05-06T01:40:10.069Z,16.86
2023-05-06T01:42:40.372Z,16.81
2023-05-06T01:45:10.036Z,16.84
2023-05-06T01:47:38.021Z,16.97
2023-05-06T01:50:07.130Z,16.94
2023-05-06T01:52:34.515Z,16.81
2023-05-06T01:55:02.560Z,16.86
2023-05-06T01:57:29.878Z,16.83
2023-05-06T01:59:57.312Z,16.90
2023-05-06T02:02:24.776Z,16.97
2023-05-06T02:04:53.496Z,17.03
2023-05-06T02:07:21.126Z,17.04
2023-05-06T02:09:48.441Z,16.73
2023-05-06T02:12:16.188Z,16.51
2023-05-06T02:14:43.952Z,16.42
2023-05-06T02:17:12.158Z,16.18
2023-05-06T02:19:39.476Z,16.00
2023-05-06T02:22:07.246Z,16.21
2023-05-06T02:24:34.713Z,16.54
2023-05-06T02:27:02.333Z,16.63
2023-05-06T02:29:30.230Z,16.54
2023-05-06T02:31:57.747Z,16.64
2023-05-06T02:34:25.227Z,16.58
2023-05-06T02:36:52.567Z,16.47
2023-05-06T02:39:20.308Z,16.36
2023-05-06T02:41:47.799Z,16.62
2023-05-06T02:44:15.215Z,16.72
2023-05-06T02:47:00.850Z,16.55
2023-05-06T02:49:47.034Z,16.33
2023-05-06T02:52:14.805Z,16.35
2023-05-06T02:54:42.757Z,16.41
2023-05-06T02:57:10.158Z,16.41
2023-05-06T02:59:37.601Z,16.56
2023-05-06T03:02:05.166Z,16.34
2023-05-06T03:04:32.731Z,16.30
2023-05-06T03:07:00.567Z,16.29
2023-05-06T03:09:27.919Z,16.35
2023-05-06T03:11:56.754Z,16.30
2023-05-06T03:14:24.243Z,16.21
2023-05-06T03:16:52.151Z,16.32
2023-05-06T03:19:19.887Z,16.44
2023-05-06T03:21:48.067Z,16.34
2023-05-06T03:24:17.727Z,16.24
2023-05-06T03:26:45.543Z,16.09
2023-05-06T03:29:14.261Z,16.07
2023-05-06T03:31:43.704Z,16.02
2023-05-06T03:34:11.959Z,16.04
2023-05-06T03:36:39.212Z,16.21
2023-05-06T03:39:06.630Z,16.22
2023-05-06T03:41:36.663Z,16.09
2023-05-06T03:44:04.919Z,16.04
2023-05-06T03:46:32.796Z,16.12
2023-05-06T03:49:02.721Z,16.14
2023-05-06T03:51:30.774Z,16.26
2023-05-06T03:53:58.224Z,16.11
2023-05-06T03:56:26.311Z,16.11
2023-05-06T03:58:55.862Z,16.10
2023-05-06T04:01:25.917Z,16.16
2023-05-06T04:03:54.523Z,16.18
2023-05-06T04:06:23.263Z,16.23
2023-05-06T04:08:51.035Z,15.97
2023-05-06T04:11:19.548Z,15.85
2023-05-06T04:13:48.188Z,15.95
2023-05-06T04:16:19.454Z,16.15
2023-05-06T04:18:47.961Z,16.16
2023-05-06T04:21:18.286Z,16.04
2023-05-06T04:23:52.258Z,15.96
2023-05-06T04:26:24.086Z,16.07
2023-05-06T04:28:51.618Z,15.87
2023-05-06T04:31:19.613Z,15.80
2023-05-06T04:33:50.296Z,15.94
2023-05-06T04:36:22.188Z,15.82
2023-05-06T04:39:10.498Z,15.98
2023-05-06T04:41:38.748Z,15.98
2023-05-06T04:44:06.709Z,15.98
2023-05-06T04:46:35.012Z,16.04
2023-05-06T04:49:04.071Z,16.14
2023-05-06T04:51:32.036Z,16.24
2023-05-06T04:54:00.877Z,16.24
2023-05-06T04:56:28.657Z,16.37
2023-05-06T04:58:56.270Z,16.81
2023-05-06T05:01:23.697Z,16.73
2023-05-06T05:03:51.477Z,16.69
2023-05-06T05:06:21.146Z,16.57
2023-05-06T05:08:49.231Z,16.46
2023-05-06T05:11:16.993Z,16.39
2023-05-06T05:13:44.612Z,16.58
2023-05-06T05:16:12.043Z,16.68
2023-05-06T05:18:43.795Z,16.84
2023-05-06T05:21:18.493Z,16.81
2023-05-06T05:23:46.471Z,16.84
2023-05-06T05:26:14.857Z,17.07
2023-05-06T05:28:44.242Z,17.03
2023-05-06T05:31:13.125Z,17.32
2023-05-06T05:33:40.691Z,17.34
2023-05-06T05:36:15.210Z,17.21
2023-05-06T05:38:43.946Z,17.05
2023-05-06T05:41:11.827Z,17.00
2023-05-06T05:43:39.765Z,17.14
2023-05-06T05:46:07.853Z,17.11
2023-05-06T05:48:37.888Z,17.26
2023-05-06T05:51:06.194Z,17.47
2023-05-06T05:53:33.773Z,17.49
2023-05-06T05:56:01.136Z,17.68
2023-05-06T05:58:29.761Z,17.63
2023-05-06T06:01:00.013Z,17.95
2023-05-06T06:03:27.941Z,18.10
2023-05-06T06:05:55.959Z,18.20
2023-05-06T06:08:26.460Z,18.46
2023-05-06T06:10:54.281Z,18.26
2023-05-06T06:13:28.780Z,18.58
2023-05-06T06:15:57.641Z,18.79
2023-05-06T06:18:24.980Z,19.12
2023-05-06T06:20:53.625Z,19.24
2023-05-06T06:23:22.407Z,19.40
2023-05-06T06:25:50.698Z,19.42
2023-05-06T06:28:18.117Z,19.50
2023-05-06T06:30:46.194Z,19.67
2023-05-06T06:33:13.525Z,19.84
2023-05-06T06:35:41.420Z,19.80
2023-05-06T06:38:08.850Z,20.08
2023-05-06T06:40:36.561Z,20.32
2023-05-06T06:43:03.950Z,20.20
2023-05-06T06:45:56.414Z,20.28
2023-05-06T06:48:24.237Z,20.17
2023-05-06T06:50:52.027Z,20.40
2023-05-06T06:53:20.868Z,20.41
2023-05-06T06:55:48.387Z,20.70
2023-05-06T06:58:16.113Z,20.87
2023-05-06T07:00:44.663Z,20.79
2023-05-06T07:03:15.718Z,20.84
2023-05-06T07:05:42.969Z,20.86
2023-05-06T07:08:10.760Z,21.18
2023-05-06T07:10:38.235Z,21.13
2023-05-06T07:13:06.092Z,21.18
2023-05-06T07:15:33.878Z,20.96
2023-05-06T07:18:01.310Z,21.11
2023-05-06T07:20:28.630Z,21.32
2023-05-06T07:22:56.415Z,21.64
2023-05-06T07:25:24.184Z,21.48
2023-05-06T07:27:51.883Z,21.52
2023-05-06T07:30:22.891Z,21.94
2023-05-06T07:32:51.270Z,21.87
2023-05-06T07:35:19.572Z,21.71
2023-05-06T07:37:47.524Z,21.96
2023-05-06T07:40:14.886Z,21.98
2023-05-06T07:42:43.405Z,22.03
2023-05-06T07:45:12.389Z,22.28
2023-05-06T07:47:40.559Z,22.41
2023-05-06T07:50:08.763Z,22.42
2023-05-06T07:52:36.820Z,22.30
2023-05-06T07:55:05.025Z,22.47
2023-05-06T07:57:32.858Z,22.52
2023-05-06T08:00:00.801Z,22.48
2023-05-06T08:02:28.290Z,22.39
2023-05-06T08:04:56.107Z,22.65
2023-05-06T08:07:23.482Z,22.55
2023-05-06T08:09:51.253Z,22.65
2023-05-06T08:12:18.568Z,22.65
2023-05-06T08:14:46.654Z,22.89
2023-05-06T08:17:14.197Z,22.79
2023-05-06T08:19:42.031Z,22.98
2023-05-06T08:22:10.912Z,22.95
2023-05-06T08:24:38.345Z,22.83
2023-05-06T08:27:06.015Z,23.10
2023-05-06T08:29:33.439Z,23.27
2023-05-06T08:32:01.578Z,23.31
2023-05-06T08:34:29.147Z,23.12
2023-05-06T08:36:56.805Z,23.30
2023-05-06T08:39:24.134Z,23.15
2023-05-06T08:41:54.539Z,22.41
2023-05-06T08:44:24.748Z,22.73
2023-05-06T08:46:52.363Z,23.12
2023-05-06T08:49:20.049Z,23.34
2023-05-06T08:51:50.050Z,23.56
2023-05-06T08:54:18.852Z,23.11
2023-05-06T08:56:52.589Z,23.42
2023-05-06T08:59:30.928Z,23.72
2023-05-06T09:02:03.449Z,23.86
2023-05-06T09:04:31.377Z,24.11
2023-05-06T09:06:59.108Z,23.87
2023-05-06T09:09:26.871Z,23.82
2023-05-06T09:11:57.162Z,24.04
2023-05-06T09:14:24.981Z,24.28
2023-05-06T09:16:53.119Z,24.20
2023-05-06T09:19:22.319Z,24.27
2023-05-06T09:21:51.515Z,23.21
2023-05-06T09:24:20.199Z,23.57
2023-05-06T09:26:48.120Z,24.24
2023-05-06T09:29:16.195Z,24.21
2023-05-06T09:31:45.674Z,24.55
2023-05-06T09:34:15.554Z,23.90
2023-05-06T09:36:42.931Z,24.16
2023-05-06T09:39:10.871Z,23.96
2023-05-06T09:41:38.392Z,24.44
2023-05-06T09:44:06.268Z,24.56
2023-05-06T09:46:33.922Z,24.89
2023-05-06T09:49:01.656Z,24.91
2023-05-06T09:51:31.236Z,24.84
2023-05-06T09:54:00.796Z,24.84
2023-05-06T09:56:30.753Z,24.84
2023-05-06T09:58:58.509Z,24.97
2023-05-06T10:01:36.017Z,25.16
2023-05-06T10:04:09.964Z,25.31
2023-05-06T10:06:40.470Z,24.33
2023-05-06T10:09:09.129Z,24.89
2023-05-06T10:11:37.230Z,25.16
2023-05-06T10:14:06.615Z,25.19
2023-05-06T10:16:36.543Z,25.30
2023-05-06T10:19:07.413Z,25.78
2023-05-06T10:21:39.426Z,25.64
2023-05-06T10:24:11.540Z,25.21
2023-05-06T10:26:40.924Z,25.09
2023-05-06T10:29:11.717Z,25.64
2023-05-06T10:31:47.251Z,25.63
2023-05-06T10:34:16.350Z,24.82
2023-05-06T10:36:46.121Z,25.43
2023-05-06T10:39:14.874Z,25.75
2023-05-06T10:41:42.510Z,26.11
2023-05-06T10:44:10.143Z,26.26
2023-05-06T10:47:01.374Z,26.66
2023-05-06T10:49:29.239Z,26.40
2023-05-06T10:52:11.842Z,26.13
2023-05-06T10:54:52.466Z,26.57
2023-05-06T10:57:26.659Z,26.76
2023-05-06T10:59:55.520Z,26.68
2023-05-06T11:02:25.081Z,26.85
2023-05-06T11:05:01.863Z,26.52
2023-05-06T11:07:29.370Z,26.79
2023-05-06T11:10:02.028Z,26.83
2023-05-06T11:13:24.109Z,26.27
2023-05-06T11:15:52.542Z,26.28
2023-05-06T11:18:26.473Z,27.11
2023-05-06T11:21:01.404Z,27.62
2023-05-06T11:23:52.257Z,27.59
2023-05-06T11:26:21.352Z,27.89
2023-05-06T11:28:51.071Z,27.90
2023-05-06T11:31:19.416Z,27.63
2023-05-06T11:33:49.253Z,27.62
2023-05-06T11:36:19.277Z,27.65
2023-05-06T11:38:49.722Z,27.89
2023-05-06T11:41:18.219Z,28.00
2023-05-06T11:43:46.734Z,28.24
2023-05-06T11:46:15.136Z,27.79
2023-05-06T11:48:47.421Z,27.03
2023-05-06T11:51:16.414Z,28.01
2023-05-06T11:53:48.415Z,28.19
2023-05-06T11:56:16.172Z,28.29
2023-05-06T11:58:44.651Z,28.82
2023-05-06T12:01:13.685Z,29.02
2023-05-06T12:03:42.575Z,29.03
2023-05-06T12:06:10.014Z,29.12
2023-05-06T12:08:38.967Z,29.50
2023-05-06T12:11:08.488Z,29.58
2023-05-06T12:13:38.294Z,29.53
2023-05-06T12:16:08.604Z,29.13
2023-05-06T12:18:36.211Z,29.21
2023-05-06T12:21:04.414Z,29.34
2023-05-06T12:23:32.478Z,29.07
2023-05-06T12:26:06.153Z,29.74
2023-05-06T12:28:36.869Z,29.52
2023-05-06T12:31:21.095Z,29.78
2023-05-06T12:33:50.535Z,29.99
2023-05-06T12:36:19.417Z,29.13
2023-05-06T12:38:54.963Z,30.00
2023-05-06T12:41:24.751Z,29.84
2023-05-06T12:43:53.719Z,29.76
2023-05-06T12:46:21.956Z,29.48
2023-05-06T12:49:03.168Z,30.42
2023-05-06T12:51:31.465Z,30.78
2023-05-06T12:53:58.734Z,30.87
2023-05-06T12:56:26.947Z,30.66
2023-05-06T12:58:59.244Z,31.25
2023-05-06T13:01:27.118Z,31.07
2023-05-06T13:03:58.669Z,31.34
2023-05-06T13:06:26.886Z,31.30
2023-05-06T13:08:54.246Z,31.39
2023-05-06T13:11:22.138Z,32.35
2023-05-06T13:13:49.953Z,32.40
2023-05-06T13:16:18.273Z,31.75
2023-05-06T13:18:45.963Z,31.27
2023-05-06T13:21:14.132Z,31.41
2023-05-06T13:23:46.976Z,31.37
2023-05-06T13:26:15.687Z,31.71
2023-05-06T13:28:44.074Z,31.40
2023-05-06T13:31:11.416Z,31.42
2023-05-06T13:33:38.933Z,32.23
2023-05-06T13:36:07.126Z,31.81
2023-05-06T13:38:34.856Z,30.15
2023-05-06T13:41:02.683Z,31.67
2023-05-06T13:43:30.105Z,31.87
2023-05-06T13:45:57.860Z,32.26
2023-05-06T13:48:25.853Z,32.79
2023-05-06T13:50:53.677Z,32.86
2023-05-06T13:53:21.588Z,32.95
2023-05-06T13:55:49.060Z,33.17
2023-05-06T13:58:17.245Z,33.17
2023-05-06T14:00:44.697Z,33.41
2023-05-06T14:03:12.599Z,33.70
2023-05-06T14:05:40.058Z,33.78
2023-05-06T14:08:08.315Z,32.73
2023-05-06T14:10:35.656Z,32.77
2023-05-06T14:13:06.188Z,33.27
2023-05-06T14:15:34.524Z,33.25
2023-05-06T14:18:02.392Z,31.70
2023-05-06T14:20:29.895Z,32.15
2023-05-06T14:22:57.641Z,33.20
2023-05-06T14:25:27.847Z,32.53
2023-05-06T14:27:55.875Z,33.77
2023-05-06T14:30:24.605Z,32.67
2023-05-06T14:32:52.252Z,31.82
2023-05-06T14:35:19.934Z,32.54
2023-05-06T14:37:47.265Z,33.29
2023-05-06T14:40:15.605Z,34.90
2023-05-06T14:42:43.898Z,39.38
2023-05-06T14:45:11.995Z,36.99
2023-05-06T14:47:40.988Z,41.37
2023-05-06T14:50:09.785Z,41.09
2023-05-06T14:52:38.615Z,42.30
2023-05-06T14:55:07.746Z,42.27
2023-05-06T14:57:35.781Z,44.50
2023-05-06T15:00:09.886Z,42.88
2023-05-06T15:02:40.810Z,44.41
2023-05-06T15:05:10.095Z,45.78
2023-05-06T15:07:38.235Z,44.31
2023-05-06T15:10:06.651Z,46.38
2023-05-06T15:12:37.207Z,43.41
2023-05-06T15:15:05.892Z,45.05
2023-05-06T15:17:34.717Z,44.49
2023-05-06T15:20:02.634Z,44.61
2023-05-06T15:22:29.966Z,44.48
2023-05-06T15:24:57.196Z,44.50
2023-05-06T15:27:24.602Z,41.16
2023-05-06T15:29:51.992Z,44.29
2023-05-06T15:32:19.796Z,45.37
2023-05-06T15:34:47.032Z,45.56
2023-05-06T15:37:19.139Z,42.97
2023-05-06T15:39:47.894Z,44.11
2023-05-06T15:42:17.226Z,44.32
2023-05-06T15:44:44.644Z,42.97
2023-05-06T15:47:11.978Z,44.52
2023-05-06T15:52:10.119Z,44.57
2023-05-06T15:54:37.973Z,44.78
2023-05-06T15:57:07.006Z,44.61
2023-05-06T15:59:35.198Z,46.09
2023-05-06T16:04:34.104Z,42.75
2023-05-06T16:07:02.932Z,43.91
2023-05-06T16:09:30.296Z,45.17
2023-05-06T16:11:57.577Z,44.26
2023-05-06T16:14:24.819Z,44.43
2023-05-06T16:16:52.579Z,44.35
2023-05-06T16:19:20.476Z,42.33
2023-05-06T16:21:48.365Z,43.09
2023-05-06T16:24:16.146Z,41.65
2023-05-06T16:26:43.548Z,42.11
2023-05-06T16:29:11.690Z,40.79
2023-05-06T16:31:39.022Z,40.16
2023-05-06T16:34:06.709Z,38.11
2023-05-06T16:36:34.427Z,38.72
2023-05-06T16:39:01.837Z,40.32
2023-05-06T16:41:29.149Z,40.29
2023-05-06T16:43:57.559Z,38.43
2023-05-06T16:46:26.327Z,37.71
2023-05-06T16:48:54.093Z,38.65
2023-05-06T16:51:22.365Z,38.21
2023-05-06T16:53:50.960Z,37.80
2023-05-06T16:56:18.293Z,38.07
2023-05-06T16:58:45.847Z,36.62
2023-05-06T17:01:13.608Z,37.76
2023-05-06T17:03:41.148Z,35.78
2023-05-06T17:06:09.315Z,37.14
2023-05-06T17:08:37.569Z,37.21
2023-05-06T17:11:06.771Z,35.40
2023-05-06T17:13:35.015Z,34.63
2023-05-06T17:16:02.961Z,33.12
2023-05-06T17:18:30.938Z,32.17
2023-05-06T17:20:58.795Z,31.75
2023-05-06T17:23:26.294Z,30.77
2023-05-06T17:25:56.385Z,30.36
2023-05-06T17:28:24.919Z,29.86
2023-05-06T17:30:52.714Z,29.84
2023-05-06T17:33:20.823Z,29.35
2023-05-06T17:35:48.594Z,29.56
2023-05-06T17:38:16.961Z,29.24
2023-05-06T17:40:44.250Z,29.12
2023-05-06T17:43:12.342Z,28.83
2023-05-06T17:45:40.745Z,28.52
2023-05-06T17:48:08.036Z,28.60
2023-05-06T17:50:35.974Z,28.55
2023-05-06T17:53:03.377Z,28.24
2023-05-06T17:55:31.103Z,28.37
2023-05-06T17:57:58.536Z,28.06
2023-05-06T18:00:26.901Z,28.07
2023-05-06T18:02:55.230Z,27.60
2023-05-06T18:05:24.683Z,27.66
2023-05-06T18:07:52.620Z,27.10
2023-05-06T18:10:20.036Z,26.75
2023-05-06T18:12:48.032Z,26.95
2023-05-06T18:15:15.538Z,27.01
2023-05-06T18:17:42.962Z,26.78
2023-05-06T18:20:10.844Z,26.49
2023-05-06T18:22:38.945Z,26.49
2023-05-06T18:25:07.069Z,26.25
2023-05-06T18:27:34.495Z,26.26
2023-05-06T18:30:01.929Z,25.99
2023-05-06T18:32:29.457Z,25.86
2023-05-06T18:34:57.142Z,25.47
2023-05-06T18:37:24.555Z,25.71
2023-05-06T18:39:51.827Z,26.05
2023-05-06T18:42:19.132Z,25.81
2023-05-06T18:44:46.499Z,25.56
2023-05-06T18:47:13.858Z,25.35
2023-05-06T18:49:41.198Z,25.03
2023-05-06T18:52:09.567Z,25.40
2023-05-06T18:54:36.891Z,25.31
2023-05-06T18:57:04.587Z,25.29
2023-05-06T18:59:31.970Z,25.14
2023-05-06T19:02:01.951Z,25.26
2023-05-06T19:04:31.317Z,25.43
2023-05-06T19:06:58.644Z,24.93
2023-05-06T19:09:26.224Z,24.76
2023-05-06T19:11:54.395Z,24.78
2023-05-06T19:14:23.656Z,24.91
2023-05-06T19:16:52.739Z,24.72
2023-05-06T19:19:20.235Z,24.81
2023-05-06T19:21:47.574Z,24.92
2023-05-06T19:24:14.878Z,25.00
2023-05-06T19:26:42.277Z,24.87
2023-05-06T19:29:09.979Z,24.84
2023-05-06T19:31:38.090Z,24.59
2023-05-06T19:34:05.898Z,24.45
2023-05-06T19:36:33.127Z,24.17
2023-05-06T19:39:00.798Z,24.45
2023-05-06T19:41:28.685Z,24.44
2023-05-06T19:43:56.796Z,24.50
2023-05-06T19:46:24.155Z,24.55
2023-05-06T19:48:52.128Z,24.26
2023-05-06T19:51:19.761Z,24.02
2023-05-06T19:53:48.949Z,23.87
2023-05-06T19:56:17.397Z,23.95
2023-05-06T19:58:45.601Z,24.20
2023-05-06T20:01:13.079Z,24.28
2023-05-06T20:03:41.034Z,24.26
2023-05-06T20:06:08.802Z,24.21
2023-05-06T20:08:36.520Z,24.09
2023-05-06T20:11:03.831Z,24.31
2023-05-06T20:13:31.677Z,24.20
2023-05-06T20:16:00.254Z,23.95
2023-05-06T20:18:28.155Z,24.21
2023-05-06T20:20:56.289Z,24.26
2023-05-06T20:23:23.944Z,24.13
2023-05-06T20:25:51.937Z,24.06
2023-05-06T20:28:19.213Z,24.03
2023-05-06T20:30:48.250Z,23.94
2023-05-06T20:33:15.796Z,23.87
2023-05-06T20:35:43.276Z,23.82
2023-05-06T20:38:11.354Z,23.83
2023-05-06T20:40:38.720Z,23.82
2023-05-06T20:43:06.109Z,23.64
2023-05-06T20:45:33.573Z,23.61
2023-05-06T20:48:01.040Z,23.83
2023-05-06T20:50:29.926Z,23.69
2023-05-06T20:52:57.704Z,23.85
2023-05-06T20:55:25.856Z,23.87
2023-05-06T20:57:53.396Z,23.70
2023-05-06T21:00:21.585Z,23.80
2023-05-06T21:02:49.384Z,23.50
2023-05-06T21:05:17.570Z,23.36
2023-05-06T21:07:45.646Z,23.20
2023-05-06T21:10:14.509Z,23.35
2023-05-06T21:12:50.014Z,23.48
2023-05-06T21:15:17.566Z,23.43
2023-05-06T21:17:45.204Z,23.43
2023-05-06T21:20:13.200Z,23.35
2023-05-06T21:22:40.616Z,23.16
2023-05-06T21:25:09.090Z,23.33
2023-05-06T21:27:36.910Z,23.17
2023-05-06T21:30:04.673Z,23.09
2023-05-06T21:32:33.349Z,23.21
2023-05-06T21:35:02.627Z,23.15
2023-05-06T21:37:30.662Z,23.13
2023-05-06T21:39:57.983Z,23.45
2023-05-06T21:42:25.378Z,23.31
2023-05-06T21:44:52.756Z,23.35
2023-05-06T21:47:20.199Z,23.32
2023-05-06T21:49:48.474Z,23.45
2023-05-06T21:52:15.811Z,23.18
2023-05-06T21:54:46.444Z,22.90
2023-05-06T21:57:14.042Z,22.71
2023-05-06T21:59:41.809Z,22.61
2023-05-06T22:02:09.491Z,22.29
2023-05-06T22:04:37.477Z,22.45
2023-05-06T22:07:04.899Z,22.33
2023-05-06T22:09:32.185Z,22.28
2023-05-06T22:11:59.757Z,22.11
2023-05-06T22:14:37.402Z,22.30
2023-05-06T22:17:08.026Z,22.28
2023-05-06T22:19:35.951Z,22.23
2023-05-06T22:22:04.218Z,22.36
2023-05-06T22:24:31.632Z,22.36
2023-05-06T22:26:59.002Z,22.34
2023-05-06T22:29:26.734Z,22.58
2023-05-06T22:31:54.221Z,22.49
2023-05-06T22:34:21.707Z,22.47
2023-05-06T22:36:49.497Z,22.28
2023-05-06T22:39:16.832Z,22.03
2023-05-06T22:41:45.519Z,22.09
2023-05-06T22:44:13.760Z,21.75
2023-05-06T22:46:41.482Z,22.10
2023-05-06T22:49:08.816Z,21.96
2023-05-06T22:51:36.740Z,21.93
2023-05-06T22:54:04.844Z,22.00
2023-05-06T22:56:32.186Z,21.87
2023-05-06T22:58:59.485Z,21.77
2023-05-06T23:01:32.016Z,21.71
2023-05-06T23:03:59.836Z,21.95
2023-05-06T23:06:28.448Z,21.79
2023-05-06T23:08:55.707Z,21.73
2023-05-06T23:11:23.219Z,21.50
2023-05-06T23:13:50.807Z,21.40
2023-05-06T23:16:18.447Z,21.56
2023-05-06T23:18:46.156Z,21.56
2023-05-06T23:21:13.586Z,21.28
2023-05-06T23:23:41.031Z,21.17
2023-05-06T23:26:08.930Z,21.17
2023-05-06T23:28:36.542Z,21.28
2023-05-06T23:31:03.829Z,21.36
2023-05-06T23:33:31.221Z,21.06
2023-05-06T23:36:02.505Z,21.26
2023-05-06T23:38:30.180Z,21.09
2023-05-06T23:40:57.915Z,21.03
2023-05-06T23:43:25.821Z,20.99
2023-05-06T23:45:53.719Z,21.03
2023-05-06T23:48:21.454Z,20.97
2023-05-06T23:50:48.881Z,21.04
2023-05-06T23:53:16.937Z,21.18
2023-05-06T23:55:44.360Z,21.03
2023-05-06T23:58:11.686Z,20.92
